Time;durP1;ratioP1;P1;durP2;ratioP2;P2;SDS_P1;SDS_P2;PMS_P1;PMS_P2;Temp;Humidity;BMP_temperature;BMP_pressure;BME280_temperature;BME280_humidity;BME280_pressure;Samples;Min_cycle;Max_cycle;Signal;HPM_P1;HPM_P2
2023/08/14 00:02:02;;;;;;;5.60;3.00;;;;;;;18.45;100.00;100491.03;4999136;28;20235;-70
2023/08/14 00:04:29;;;;;;;4.63;3.03;;;;;;;18.34;100.00;100490.31;5009735;28;20258;-71
2023/08/14 00:06:55;;;;;;;4.70;3.20;;;;;;;18.23;100.00;100490.50;5010059;28;20346;-70
2023/08/14 00:09:21;;;;;;;5.22;2.67;;;;;;;18.16;100.00;100502.25;5004616;28;20196;-70
2023/08/14 00:11:48;;;;;;;6.67;2.90;;;;;;;18.07;100.00;100500.59;5006746;28;20211;-71
2023/08/14 00:14:14;;;;;;;5.93;3.27;;;;;;;18.03;100.00;100495.31;4992028;28;20231;-70
2023/08/14 00:16:41;;;;;;;6.33;3.10;;;;;;;18.03;100.00;100500.66;5009971;28;20836;-68
2023/08/14 00:19:07;;;;;;;8.37;3.30;;;;;;;17.95;100.00;100497.19;5010096;28;20203;-71
2023/08/14 00:21:34;;;;;;;7.27;3.20;;;;;;;17.85;100.00;100494.66;5002506;28;20220;-71
2023/08/14 00:24:00;;;;;;;4.90;3.27;;;;;;;17.85;100.00;100496.44;5009411;28;20204;-70
2023/08/14 00:26:26;;;;;;;6.40;3.20;;;;;;;17.81;100.00;100498.28;5009773;28;20703;-69
2023/08/14 00:28:53;;;;;;;7.40;3.07;;;;;;;17.86;100.00;100503.56;5009925;28;20383;-70
2023/08/14 00:31:19;;;;;;;5.97;3.20;;;;;;;17.91;100.00;100508.88;4983748;28;20274;-69
2023/08/14 00:33:46;;;;;;;7.30;3.67;;;;;;;17.97;100.00;100495.38;5007615;28;20648;-71
2023/08/14 00:36:12;;;;;;;6.82;3.40;;;;;;;18.08;100.00;100497.00;5009585;28;20330;-72
2023/08/14 00:38:39;;;;;;;5.60;3.57;;;;;;;18.14;100.00;100502.25;5006297;28;20205;-70
2023/08/14 00:41:05;;;;;;;5.13;3.47;;;;;;;18.32;100.00;100497.50;5007289;28;20226;-70
2023/08/14 00:43:32;;;;;;;7.15;3.55;;;;;;;18.42;100.00;100491.97;5009291;28;20679;-70
2023/08/14 00:46:00;;;;;;;5.63;3.17;;;;;;;18.50;100.00;100488.28;5009317;28;20220;-70
2023/08/14 00:48:27;;;;;;;7.10;3.50;;;;;;;18.53;100.00;100480.19;5007187;28;20196;-71
2023/08/14 00:50:54;;;;;;;6.10;3.63;;;;;;;18.48;100.00;100483.81;5013187;28;20201;-70
2023/08/14 00:53:25;;;;;;;5.83;3.30;;;;;;;18.36;100.00;100467.03;5013371;28;20200;-73
2023/08/14 00:55:52;;;;;;;6.87;3.20;;;;;;;18.34;100.00;100469.75;5013522;28;20601;-70
2023/08/14 00:58:19;;;;;;;7.30;3.10;;;;;;;18.38;100.00;100473.25;5006277;28;20200;-71
2023/08/14 01:00:45;;;;;;;5.63;4.07;;;;;;;18.36;100.00;100475.09;5008267;28;20700;-72
2023/08/14 01:03:12;;;;;;;6.03;3.40;;;;;;;18.27;100.00;100462.72;5012933;28;20254;-70
2023/08/14 01:05:39;;;;;;;7.90;3.80;;;;;;;18.10;100.00;100467.50;5013246;28;20297;-70
2023/08/14 01:08:05;;;;;;;6.43;3.43;;;;;;;17.97;100.00;100463.22;5009882;28;20792;-71
2023/08/14 01:11:01;;;;;;;5.37;3.27;;;;;;;17.85;100.00;100456.25;5012602;28;20196;-70
2023/08/14 01:13:36;;;;;;;5.33;3.20;;;;;;;17.76;100.00;100462.66;5005935;28;20208;-71
2023/08/14 01:16:07;;;;;;;8.53;3.40;;;;;;;17.67;100.00;100464.59;5012943;28;20234;-70
2023/08/14 01:18:37;;;;;;;6.53;3.17;;;;;;;17.58;100.00;100460.19;5006289;28;20205;-68
2023/08/14 01:21:12;;;;;;;5.70;3.60;;;;;;;17.52;100.00;100457.59;5004728;28;20231;-70
2023/08/14 01:23:56;;;;;;;7.03;3.33;;;;;;;17.61;100.00;100454.81;4992837;28;20204;-68
2023/08/14 01:26:22;;;;;;;5.70;3.70;;;;;;;17.59;100.00;100447.69;4993143;28;20221;-72
2023/08/14 01:28:49;;;;;;;6.73;3.50;;;;;;;17.50;100.00;100449.59;4993123;28;20240;-70
2023/08/14 01:31:16;;;;;;;4.87;3.10;;;;;;;17.46;100.00;100449.66;5000647;28;20557;-70
2023/08/14 01:33:42;;;;;;;7.47;3.90;;;;;;;17.39;100.00;100459.56;4992935;28;20719;-70
2023/08/14 01:36:33;;;;;;;7.13;3.80;;;;;;;17.35;100.00;100465.88;4996272;28;20314;-72
2023/08/14 01:39:07;;;;;;;5.93;3.87;;;;;;;17.33;100.00;100453.41;5002101;28;20232;-70
2023/08/14 01:41:37;;;;;;;9.17;3.97;;;;;;;17.30;100.00;100453.44;4992624;28;20596;-70
2023/08/14 01:44:07;;;;;;;6.43;3.73;;;;;;;17.39;100.00;100453.31;4993563;28;20204;-71
2023/08/14 01:46:34;;;;;;;6.37;3.70;;;;;;;17.40;100.00;100457.78;4995823;28;20231;-70
2023/08/14 01:49:03;;;;;;;5.13;3.17;;;;;;;17.43;100.00;100442.56;5011962;28;20292;-69
2023/08/14 01:51:30;;;;;;;7.03;3.90;;;;;;;17.46;100.00;100437.16;4999504;28;20205;-69
2023/08/14 01:53:57;;;;;;;5.17;3.30;;;;;;;17.43;100.00;100452.38;4992226;28;20240;-68
2023/08/14 01:56:23;;;;;;;8.30;4.00;;;;;;;17.39;100.00;100447.97;4991309;28;20235;-69
2023/08/14 01:58:50;;;;;;;4.00;3.23;;;;;;;17.23;100.00;100452.66;5011517;28;20216;-72
2023/08/14 02:01:16;;;;;;;5.63;3.73;;;;;;;17.15;100.00;100446.47;5000698;28;20224;-69
2023/08/14 02:03:42;;;;;;;10.50;3.70;;;;;;;17.10;100.00;100454.56;4992344;28;20287;-70
2023/08/14 02:06:09;;;;;;;6.80;3.90;;;;;;;17.12;100.00;100444.72;4991983;28;20233;-70
2023/08/14 02:08:35;;;;;;;6.40;3.60;;;;;;;17.07;100.00;100443.03;5004934;28;20287;-68
2023/08/14 02:11:09;;;;;;;7.27;3.40;;;;;;;17.16;100.00;100434.88;5010538;28;20204;-70
2023/08/14 02:13:35;;;;;;;11.50;3.70;;;;;;;17.17;100.00;100420.59;4992105;28;20200;-70
2023/08/14 02:16:03;;;;;;;9.03;3.33;;;;;;;17.22;100.00;100425.00;4992136;28;20247;-70
2023/08/14 02:18:29;;;;;;;8.20;3.60;;;;;;;17.21;100.00;100423.22;5001304;28;20211;-70
2023/08/14 02:20:56;;;;;;;8.33;3.53;;;;;;;17.22;100.00;100433.03;5011669;28;20235;-70
2023/08/14 02:23:22;;;;;;;6.27;3.30;;;;;;;17.22;100.00;100426.78;4991965;28;20279;-70
2023/08/14 02:25:49;;;;;;;7.30;3.57;;;;;;;17.20;100.00;100420.53;4991829;28;20712;-70
2023/08/14 02:28:15;;;;;;;5.97;3.10;;;;;;;17.20;100.00;100417.88;4977996;28;20667;-72
2023/08/14 02:30:42;;;;;;;6.50;3.20;;;;;;;17.19;100.00;100421.44;5011133;28;20231;-70
2023/08/14 02:33:09;;;;;;;6.23;3.50;;;;;;;17.23;100.00;100421.41;4993573;28;20212;-70
2023/08/14 02:35:35;;;;;;;5.73;3.10;;;;;;;17.26;100.00;100411.56;4991635;28;20358;-71
2023/08/14 02:38:05;;;;;;;5.80;3.40;;;;;;;17.25;100.00;100399.97;4991344;28;20207;-69
2023/08/14 02:40:31;;;;;;;5.60;3.20;;;;;;;17.35;100.00;100408.75;4992114;28;20248;-70
2023/08/14 02:43:02;;;;;;;6.97;3.60;;;;;;;17.60;100.00;100404.81;5002812;28;20205;-69
2023/08/14 02:45:29;;;;;;;3.77;2.90;;;;;;;17.61;100.00;100403.00;4991767;28;20251;-70
2023/08/14 02:47:55;;;;;;;7.10;3.67;;;;;;;17.61;100.00;100406.59;4991551;28;20216;-72
2023/08/14 02:50:22;;;;;;;5.30;3.17;;;;;;;17.63;100.00;100391.41;5004746;28;20204;-70
2023/08/14 02:52:48;;;;;;;7.57;3.20;;;;;;;17.67;100.00;100392.25;5003959;28;20280;-71
2023/08/14 02:55:15;;;;;;;5.67;3.30;;;;;;;17.82;100.00;100390.22;4991025;28;20208;-69
2023/08/14 02:57:41;;;;;;;5.73;3.60;;;;;;;17.93;100.00;100381.09;4991468;28;20227;-69
2023/08/14 03:00:09;;;;;;;3.40;3.10;;;;;;;17.98;100.00;100380.13;4999321;28;20226;-71
2023/08/14 03:02:35;;;;;;;6.37;3.10;;;;;;;18.04;100.00;100381.84;5011011;28;20230;-70
2023/08/14 03:05:02;;;;;;;5.13;3.20;;;;;;;18.07;100.00;100381.78;5008908;28;20211;-70
2023/08/14 03:07:28;;;;;;;6.37;2.80;;;;;;;18.13;100.00;100389.72;4998475;28;20224;-70
2023/08/14 03:09:56;;;;;;;6.00;3.08;;;;;;;18.17;100.00;100389.63;4973672;28;20213;-70
2023/08/14 03:12:22;;;;;;;5.10;3.23;;;;;;;18.19;100.00;100384.22;4990351;28;20197;-70
2023/08/14 03:14:49;;;;;;;4.93;3.00;;;;;;;18.12;100.00;100369.19;5003281;28;20204;-70
2023/08/14 03:17:16;;;;;;;5.83;3.17;;;;;;;18.11;100.00;100380.81;5008328;28;20223;-70
2023/08/14 03:19:42;;;;;;;5.82;3.55;;;;;;;18.02;100.00;100380.97;4991558;28;20292;-70
2023/08/14 03:22:08;;;;;;;6.00;3.30;;;;;;;17.97;100.00;100391.75;4996650;28;20224;-70
2023/08/14 03:24:35;;;;;;;6.77;3.20;;;;;;;17.95;100.00;100387.31;5010770;28;20208;-70
2023/08/14 03:27:01;;;;;;;4.37;3.00;;;;;;;17.96;100.00;100387.28;4993702;28;20720;-70
2023/08/14 03:29:28;;;;;;;4.67;3.20;;;;;;;17.95;100.00;100382.84;4994602;28;20727;-70
2023/08/14 03:31:54;;;;;;;5.40;2.90;;;;;;;17.98;100.00;100389.94;4992857;28;20262;-72
2023/08/14 03:34:21;;;;;;;7.77;3.23;;;;;;;17.98;100.00;100389.94;4990473;28;20207;-71
2023/08/14 03:36:47;;;;;;;10.77;3.80;;;;;;;18.04;100.00;100396.13;4994070;28;20846;-70
2023/08/14 03:39:13;;;;;;;5.87;3.30;;;;;;;18.21;100.00;100386.88;5010579;28;20283;-70
2023/08/14 03:41:40;;;;;;;9.10;3.37;;;;;;;18.21;100.00;100382.41;4996921;28;20216;-68
2023/08/14 03:44:06;;;;;;;5.73;2.93;;;;;;;18.24;100.00;100384.16;4990696;28;20288;-70
2023/08/14 03:46:33;;;;;;;7.57;3.60;;;;;;;18.26;100.00;100374.28;5002880;28;20220;-72
2023/08/14 03:48:59;;;;;;;6.93;3.33;;;;;;;18.44;100.00;100380.22;5002482;28;20236;-72
2023/08/14 03:51:25;;;;;;;5.63;3.10;;;;;;;18.48;100.00;100381.91;4990679;28;20220;-70
2023/08/14 03:53:52;;;;;;;7.93;3.13;;;;;;;18.42;100.00;100382.03;4990371;28;20652;-70
2023/08/14 03:56:18;;;;;;;5.10;3.17;;;;;;;18.53;100.00;100380.94;4997641;28;20236;-68
2023/08/14 03:58:44;;;;;;;12.43;3.40;;;;;;;18.61;100.00;100374.50;5010169;28;20204;-70
2023/08/14 04:01:11;;;;;;;7.23;3.27;;;;;;;18.65;100.00;100361.94;4991927;28;20217;-70
2023/08/14 04:03:37;;;;;;;7.93;3.23;;;;;;;18.60;100.00;100363.81;4990325;28;20573;-70
2023/08/14 04:06:04;;;;;;;4.93;2.93;;;;;;;18.61;100.00;100358.41;5003182;23;20213;-70
2023/08/14 04:08:31;;;;;;;5.72;3.28;;;;;;;18.56;100.00;100367.47;5005566;28;20200;-70
2023/08/14 04:10:58;;;;;;;4.40;3.00;;;;;;;18.59;100.00;100367.41;5009329;28;20211;-70
2023/08/14 04:13:25;;;;;;;7.53;3.07;;;;;;;18.60;100.00;100374.53;5009546;28;20207;-71
2023/08/14 04:15:59;;;;;;;6.27;2.80;;;;;;;18.51;100.00;100378.28;5005395;28;20279;-71
2023/08/14 04:18:27;;;;;;;8.30;3.10;;;;;;;18.38;100.00;100379.41;5007625;28;20208;-71
2023/08/14 04:20:54;;;;;;;4.20;2.73;;;;;;;18.28;100.00;100381.38;5002346;28;20207;-71
2023/08/14 04:23:22;;;;;;;9.17;3.07;;;;;;;18.23;100.00;100383.25;4972485;28;20272;-71
2023/08/14 04:25:48;;;;;;;6.37;3.40;;;;;;;18.25;100.00;100389.47;4993426;28;20661;-71
2023/08/14 04:28:15;;;;;;;5.20;2.77;;;;;;;18.33;100.00;100381.28;5005424;28;20370;-71
2023/08/14 04:30:42;;;;;;;5.17;3.00;;;;;;;18.40;100.00;100394.56;5007849;28;20254;-71
2023/08/14 04:33:08;;;;;;;7.13;3.83;;;;;;;18.46;100.00;100389.09;4975891;28;20213;-71
2023/08/14 04:35:37;;;;;;;6.37;2.90;;;;;;;18.48;100.00;100379.22;4976436;28;20208;-71
2023/08/14 04:38:04;;;;;;;6.40;2.90;;;;;;;18.51;100.00;100382.75;5007955;28;20315;-71
2023/08/14 04:40:31;;;;;;;5.73;3.20;;;;;;;18.52;100.00;100380.06;5013009;28;20266;-71
2023/08/14 04:42:57;;;;;;;6.18;2.85;;;;;;;18.58;100.00;100376.38;4997298;28;20323;-71
2023/08/14 04:45:23;;;;;;;5.32;3.05;;;;;;;18.65;100.00;100370.88;4993387;28;20287;-71
2023/08/14 04:47:50;;;;;;;7.00;3.43;;;;;;;18.84;100.00;100374.09;4994981;28;20721;-71
2023/08/14 04:50:19;;;;;;;6.50;3.30;;;;;;;18.98;100.00;100379.16;4995354;28;20736;-71
2023/08/14 04:52:45;;;;;;;5.45;3.17;;;;;;;19.03;100.00;100386.19;4999195;28;20205;-71
2023/08/14 04:55:12;;;;;;;5.70;3.50;;;;;;;19.07;100.00;100376.28;4993604;28;20213;-71
2023/08/14 04:57:38;;;;;;;8.77;3.50;;;;;;;19.20;100.00;100372.38;4993228;28;20221;-71
2023/08/14 05:00:05;;;;;;;16.25;7.50;;;;;;;19.29;100.00;100374.91;5010381;28;20644;-71
2023/08/14 05:02:32;;;;;;;6.28;3.28;;;;;;;19.39;100.00;100384.50;5000821;28;20251;-71
2023/08/14 05:04:58;;;;;;;8.07;3.63;;;;;;;19.44;100.00;100381.72;4993069;28;20725;-71
2023/08/14 05:07:25;;;;;;;5.30;3.40;;;;;;;19.45;100.00;100383.47;4975466;28;20315;-71
2023/08/14 05:09:55;;;;;;;6.95;3.25;;;;;;;19.49;100.00;100381.59;4987734;28;20227;-71
2023/08/14 05:12:22;;;;;;;7.50;3.60;;;;;;;19.49;100.00;100384.28;5009555;28;20208;-71
2023/08/14 05:14:51;;;;;;;8.55;3.50;;;;;;;19.51;100.00;100387.81;4992804;28;20222;-71
2023/08/14 05:17:20;;;;;;;8.25;3.08;;;;;;;19.56;100.00;100394.88;4993097;28;20228;-71
2023/08/14 05:19:46;;;;;;;7.55;3.53;;;;;;;19.57;100.00;100393.06;5000905;28;20269;-71
2023/08/14 05:22:12;;;;;;;6.07;3.50;;;;;;;19.59;100.00;100393.94;4993199;28;20231;-72
2023/08/14 05:24:39;;;;;;;8.60;4.00;;;;;;;19.65;100.00;100380.38;4992921;28;20201;-71
2023/08/14 05:27:05;;;;;;;8.27;3.20;;;;;;;19.72;100.00;100390.06;4982119;28;20232;-71
2023/08/14 05:29:31;;;;;;;5.57;3.40;;;;;;;19.74;100.00;100381.94;4994690;28;20288;-71
2023/08/14 05:31:59;;;;;;;9.10;3.65;;;;;;;19.79;100.00;100391.66;5012205;28;20251;-71
2023/08/14 05:34:26;;;;;;;5.07;3.05;;;;;;;19.82;100.00;100386.22;5000368;28;20205;-71
2023/08/14 05:36:52;;;;;;;6.43;3.10;;;;;;;19.91;100.00;100396.72;4992445;28;20236;-71
2023/08/14 05:39:19;;;;;;;7.72;3.10;;;;;;;19.95;100.00;100395.72;4992358;28;20251;-71
2023/08/14 05:41:45;;;;;;;7.88;3.10;;;;;;;19.98;100.00;100398.34;5008084;28;20220;-71
2023/08/14 05:44:12;;;;;;;8.45;3.20;;;;;;;20.06;100.00;100399.97;5002228;28;20240;-71
2023/08/14 05:46:41;;;;;;;6.95;3.10;;;;;;;20.09;100.00;100398.09;4992750;28;20227;-71
2023/08/14 05:49:08;;;;;;;6.82;2.97;;;;;;;20.09;100.00;100403.47;4992026;28;20201;-72
2023/08/14 05:51:34;;;;;;;6.18;2.88;;;;;;;20.06;100.00;100406.25;5003875;28;20290;-71
2023/08/14 05:54:01;;;;;;;5.22;2.90;;;;;;;20.05;100.00;100408.97;4995962;28;20243;-71
2023/08/14 05:56:27;;;;;;;4.93;3.40;;;;;;;20.06;100.00;100405.34;4992066;28;20693;-71
2023/08/14 05:58:57;;;;;;;9.77;2.83;;;;;;;20.11;100.00;100406.13;4992280;28;20642;-72
2023/08/14 06:01:24;;;;;;;6.80;2.80;;;;;;;20.18;100.00;100405.91;4981158;28;20212;-71
2023/08/14 06:03:51;;;;;;;7.72;3.00;;;;;;;20.36;100.00;100399.16;5011350;28;20226;-71
2023/08/14 06:06:17;;;;;;;9.10;3.13;;;;;;;20.43;100.00;100397.25;4993348;28;20231;-71
2023/08/14 06:08:44;;;;;;;9.07;3.00;;;;;;;20.61;100.00;100411.06;4992033;28;20262;-71
2023/08/14 06:11:10;;;;;;;4.78;2.85;;;;;;;20.64;100.00;100405.59;4992864;28;20508;-71
2023/08/14 06:13:37;;;;;;;7.55;3.20;;;;;;;20.56;100.00;100398.69;5011496;28;20199;-71
2023/08/14 06:16:03;;;;;;;6.43;2.70;;;;;;;20.60;100.00;100412.00;4995518;28;20229;-71
2023/08/14 06:18:30;;;;;;;7.53;3.00;;;;;;;20.60;100.00;100408.44;4974779;28;20228;-71
2023/08/14 06:20:56;;;;;;;9.25;2.85;;;;;;;20.62;100.00;100407.47;4991778;28;20263;-71
2023/08/14 06:23:22;;;;;;;6.07;2.78;;;;;;;20.65;100.00;100412.75;5006976;28;20231;-71
2023/08/14 06:25:49;;;;;;;9.95;3.85;;;;;;;20.87;100.00;100410.38;5005249;28;20575;-71
2023/08/14 06:28:15;;;;;;;6.72;3.28;;;;;;;21.19;100.00;100403.13;4991805;28;20236;-71
2023/08/14 06:30:42;;;;;;;7.47;3.08;;;;;;;21.44;100.00;100392.53;4995828;28;20200;-71
2023/08/14 06:33:08;;;;;;;6.85;3.90;;;;;;;21.68;100.00;100383.69;5010052;28;20196;-71
2023/08/14 06:35:35;;;;;;;8.10;2.95;;;;;;;21.84;100.00;100370.56;4991520;28;20267;-71
2023/08/14 06:38:02;;;;;;;7.18;3.45;;;;;;;21.91;100.00;100374.81;4991397;28;20230;-71
2023/08/14 06:40:28;;;;;;;8.48;3.40;;;;;;;22.10;100.00;100372.44;4989698;28;20650;-71
2023/08/14 06:42:55;;;;;;;7.35;3.10;;;;;;;22.39;100.00;100366.00;5006086;28;20220;-71
2023/08/14 06:45:21;;;;;;;10.95;3.03;;;;;;;22.59;100.00;100374.28;5000398;28;20215;-71
2023/08/14 06:47:48;;;;;;;7.07;2.90;;;;;;;22.93;100.00;100375.78;4990386;28;20233;-71
2023/08/14 06:50:15;;;;;;;8.38;2.88;;;;;;;23.28;100.00;100375.31;4990599;28;20209;-71
2023/08/14 06:52:41;;;;;;;5.53;2.90;;;;;;;23.46;100.00;100373.72;5004181;28;20196;-71
2023/08/14 06:55:08;;;;;;;6.72;3.33;;;;;;;23.48;100.00;100374.53;5002404;28;20405;-71
2023/08/14 06:57:34;;;;;;;9.18;3.28;;;;;;;24.03;100.00;100366.91;4991233;28;20232;-71
2023/08/14 07:00:09;;;;;;;8.52;2.85;;;;;;;24.43;100.00;100370.63;4982557;28;20287;-71
2023/08/14 07:02:37;;;;;;;6.95;2.92;;;;;;;24.98;100.00;100378.06;4982472;28;20312;-72
2023/08/14 07:05:04;;;;;;;7.00;2.70;;;;;;;25.87;100.00;100373.81;5010159;28;20243;-71
2023/08/14 07:07:30;;;;;;;5.15;2.97;;;;;;;26.19;100.00;100370.38;4990629;28;20231;-71
2023/08/14 07:09:57;;;;;;;9.32;2.83;;;;;;;25.50;100.00;100369.28;4990979;28;20296;-71
2023/08/14 07:12:23;;;;;;;6.10;2.85;;;;;;;25.29;100.00;100354.94;4993995;28;20196;-72
2023/08/14 07:14:50;;;;;;;10.45;2.95;;;;;;;25.41;100.00;100354.34;5010241;28;20250;-72
2023/08/14 07:17:17;;;;;;;9.73;3.10;;;;;;;26.41;100.00;100347.53;4992469;28;20229;-71
2023/08/14 07:19:43;;;;;;;5.43;2.90;;;;;;;27.37;96.39;100350.47;4990600;28;20205;-71
2023/08/14 07:22:10;;;;;;;5.18;2.65;;;;;;;27.20;74.67;100362.28;4990045;28;20306;-72
2023/08/14 07:24:36;;;;;;;6.75;2.88;;;;;;;26.52;76.10;100356.03;5008995;28;20574;-71
2023/08/14 07:27:02;;;;;;;6.97;3.13;;;;;;;26.23;78.12;100344.81;5001990;28;20601;-71
2023/08/14 07:29:29;;;;;;;7.97;3.20;;;;;;;27.31;71.56;100338.09;5009654;28;20214;-72
2023/08/14 07:31:55;;;;;;;4.38;2.70;;;;;;;28.55;66.55;100328.97;4995370;28;20197;-72
2023/08/14 07:34:22;;;;;;;6.10;2.65;;;;;;;28.52;64.75;100329.16;4989927;28;20211;-71
2023/08/14 07:36:48;;;;;;;4.63;2.65;;;;;;;29.05;62.48;100330.38;4990651;28;20225;-72
2023/08/14 07:39:14;;;;;;;4.30;2.72;;;;;;;29.47;59.77;100342.25;4986409;28;20348;-72
2023/08/14 07:41:43;;;;;;;6.30;2.67;;;;;;;29.10;59.63;100335.53;5005026;28;20749;-72
2023/08/14 07:44:10;;;;;;;5.15;2.00;;;;;;;28.69;61.36;100339.88;4990187;28;20299;-72
2023/08/14 07:46:36;;;;;;;5.78;2.15;;;;;;;28.43;60.61;100335.19;4990208;28;20231;-72
2023/08/14 07:49:03;;;;;;;5.32;2.47;;;;;;;29.97;56.63;100332.53;4998056;28;20648;-72
2023/08/14 07:51:29;;;;;;;5.22;2.35;;;;;;;30.57;55.03;100346.59;5006654;28;20232;-72
2023/08/14 07:53:55;;;;;;;3.80;2.55;;;;;;;30.67;53.43;100350.44;4990530;28;20284;-72
2023/08/14 07:56:22;;;;;;;4.60;2.10;;;;;;;29.80;56.04;100353.66;4989953;28;20224;-72
2023/08/14 07:58:48;;;;;;;3.22;2.28;;;;;;;29.41;57.57;100350.81;4992986;28;20288;-72
2023/08/14 08:01:15;;;;;;;7.18;2.63;;;;;;;29.02;57.84;100356.00;5008988;28;20244;-72
2023/08/14 08:03:41;;;;;;;6.90;2.42;;;;;;;28.69;59.31;100358.06;4996911;28;20212;-72
2023/08/14 08:06:07;;;;;;;10.07;2.60;;;;;;;28.64;60.74;100354.75;4990192;28;20283;-73
2023/08/14 08:08:34;;;;;;;5.68;2.70;;;;;;;28.81;61.79;100356.44;4989513;28;20205;-73
2023/08/14 08:11:00;;;;;;;5.78;2.50;;;;;;;28.84;59.64;100364.44;5008005;28;20249;-72
2023/08/14 08:13:27;;;;;;;4.80;2.78;;;;;;;28.51;59.79;100375.56;4998402;28;20255;-72
2023/08/14 08:15:53;;;;;;;6.90;2.38;;;;;;;28.35;61.37;100373.75;4989676;28;20211;-72
2023/08/14 08:18:20;;;;;;;6.55;2.60;;;;;;;28.29;62.21;100384.16;4989860;28;20240;-72
2023/08/14 08:20:46;;;;;;;7.35;2.65;;;;;;;28.31;64.04;100376.78;5002485;28;20283;-72
2023/08/14 08:23:12;;;;;;;6.10;2.97;;;;;;;28.06;65.50;100372.78;5000309;28;20221;-72
2023/08/14 08:25:39;;;;;;;7.35;2.75;;;;;;;28.06;64.22;100358.28;4990062;28;20203;-72
2023/08/14 08:28:05;;;;;;;6.60;2.45;;;;;;;28.02;64.65;100360.31;4989618;28;20229;-72
2023/08/14 08:30:32;;;;;;;5.70;2.60;;;;;;;28.27;64.10;100361.59;5007666;28;20201;-72
2023/08/14 08:32:58;;;;;;;4.47;2.40;;;;;;;28.68;63.64;100373.56;4989771;28;20287;-72
2023/08/14 08:35:27;;;;;;;4.65;2.67;;;;;;;28.81;63.28;100390.03;4972846;28;20213;-72
2023/08/14 08:37:54;;;;;;;7.60;2.97;;;;;;;28.84;61.85;100395.34;4989696;28;20216;-72
2023/08/14 08:40:21;;;;;;;4.85;2.38;;;;;;;29.23;62.56;100402.00;5003517;28;20204;-72
2023/08/14 08:42:48;;;;;;;6.55;2.08;;;;;;;29.57;60.04;100392.50;5003704;28;20606;-72
2023/08/14 08:45:18;;;;;;;4.70;2.38;;;;;;;29.98;60.61;100383.44;4989466;28;20287;-72
2023/08/14 08:47:49;;;;;;;7.35;2.42;;;;;;;30.29;57.20;100379.53;4989730;28;20217;-73
2023/08/14 08:50:16;;;;;;;5.07;2.65;;;;;;;30.58;57.36;100389.34;4999312;28;20485;-72
2023/08/14 08:52:42;;;;;;;6.68;2.67;;;;;;;30.75;57.30;100389.06;5005078;28;20669;-72
2023/08/14 08:55:09;;;;;;;3.30;2.58;;;;;;;30.82;57.01;100387.66;4989975;28;20291;-73
2023/08/14 08:57:38;;;;;;;5.68;2.40;;;;;;;30.83;56.24;100400.34;4990111;28;20225;-72
2023/08/14 09:00:05;;;;;;;5.20;2.60;;;;;;;30.88;55.60;100399.16;5002509;28;20240;-72
2023/08/14 09:02:32;;;;;;;4.70;2.22;;;;;;;30.68;56.38;100397.81;5008857;28;20255;-72
2023/08/14 09:05:00;;;;;;;3.60;2.70;;;;;;;30.41;57.76;100393.22;4994435;28;20201;-72
2023/08/14 09:07:26;;;;;;;6.22;2.85;;;;;;;30.64;57.60;100399.00;4988934;28;20252;-72
2023/08/14 09:09:53;;;;;;;5.13;2.90;;;;;;;30.84;56.29;100391.16;4988537;28;20602;-72
2023/08/14 09:12:19;;;;;;;6.13;2.85;;;;;;;30.73;55.92;100393.75;5009803;28;20239;-72
2023/08/14 09:15:03;;;;;;;5.93;3.05;;;;;;;31.33;56.02;100397.75;4999174;28;20203;-72
2023/08/14 09:17:30;;;;;;;7.78;2.50;;;;;;;31.56;55.25;100396.91;4992454;28;20713;-73
2023/08/14 09:19:57;;;;;;;7.80;3.03;;;;;;;31.96;54.28;100407.69;4992426;28;20208;-72
2023/08/14 09:22:29;;;;;;;8.23;2.70;;;;;;;32.05;54.51;100396.03;5008328;28;20291;-73
2023/08/14 09:24:56;;;;;;;5.45;2.80;;;;;;;32.32;54.15;100393.94;5006009;28;20538;-73
2023/08/14 09:27:25;;;;;;;3.97;2.60;;;;;;;32.34;54.53;100391.09;4992663;28;20221;-72
2023/08/14 09:29:53;;;;;;;5.70;2.38;;;;;;;32.53;54.29;100388.69;5000547;28;20284;-73
2023/08/14 09:32:24;;;;;;;4.90;2.92;;;;;;;32.47;52.30;100388.28;5004568;28;20203;-72
2023/08/14 09:34:57;;;;;;;3.67;2.60;;;;;;;32.41;52.33;100389.63;5010290;28;20204;-72
2023/08/14 09:37:25;;;;;;;4.05;2.75;;;;;;;32.52;51.35;100394.28;4992767;28;20246;-72
2023/08/14 09:40:08;;;;;;;6.60;2.80;;;;;;;32.53;51.84;100390.56;5001617;28;20591;-73
2023/08/14 09:42:34;;;;;;;5.25;2.90;;;;;;;32.58;51.76;100375.47;5008435;28;20299;-72
2023/08/14 09:45:01;;;;;;;4.28;2.58;;;;;;;32.47;52.46;100374.59;4992225;28;20263;-72
2023/08/14 09:47:30;;;;;;;3.58;2.45;;;;;;;32.41;52.64;100381.38;4992008;28;20225;-72
2023/08/14 09:49:57;;;;;;;5.88;3.03;;;;;;;32.48;52.44;100374.47;4997196;28;20231;-73
2023/08/14 09:52:24;;;;;;;4.32;2.92;;;;;;;32.48;51.62;100371.72;5010017;28;20211;-73
2023/08/14 09:54:50;;;;;;;6.88;3.10;;;;;;;32.57;51.32;100367.38;4992155;28;20592;-72
2023/08/14 09:57:17;;;;;;;5.50;3.05;;;;;;;32.39;52.00;100369.66;4974909;28;20248;-72
2023/08/14 09:59:43;;;;;;;5.70;2.83;;;;;;;32.52;51.67;100375.97;4992771;28;20744;-72
2023/08/14 10:02:14;;;;;;;5.53;2.88;;;;;;;32.48;51.60;100374.47;5011125;28;20208;-73
2023/08/14 10:04:45;;;;;;;4.68;2.50;;;;;;;32.81;51.79;100373.69;4999281;28;20281;-73
2023/08/14 10:07:13;;;;;;;3.90;2.67;;;;;;;33.00;51.01;100381.34;4992335;28;20307;-71
2023/08/14 10:09:44;;;;;;;8.77;3.10;;;;;;;33.13;50.87;100384.81;4991791;28;20208;-72
2023/08/14 10:12:16;;;;;;;5.60;2.95;;;;;;;33.19;50.68;100384.31;5008334;28;20706;-72
2023/08/14 10:14:47;;;;;;;5.65;2.80;;;;;;;33.02;51.62;100382.97;4991530;28;20236;-72
2023/08/14 10:17:29;;;;;;;3.90;2.72;;;;;;;33.14;50.79;100377.47;4992182;28;20303;-70
2023/08/14 10:20:00;;;;;;;6.50;2.85;;;;;;;33.11;51.76;100391.44;4991893;28;20212;-71
2023/08/14 10:22:27;;;;;;;6.95;3.00;;;;;;;33.17;51.04;100375.34;5007207;28;20214;-71
2023/08/14 10:24:54;;;;;;;4.20;3.05;;;;;;;32.98;51.10;100373.22;5005623;28;20667;-71
2023/08/14 10:27:21;;;;;;;4.40;3.03;;;;;;;32.98;52.29;100366.88;4991357;28;20311;-71
2023/08/14 10:29:48;;;;;;;4.07;2.72;;;;;;;32.94;51.51;100370.84;4992121;28;20209;-71
2023/08/14 10:32:15;;;;;;;4.95;2.95;;;;;;;32.77;52.04;100368.53;5001058;28;20291;-71
2023/08/14 10:34:43;;;;;;;4.82;3.00;;;;;;;32.09;53.15;100360.06;5007248;28;20209;-71
2023/08/14 10:37:25;;;;;;;8.32;3.05;;;;;;;32.21;54.75;100360.97;4991730;28;20235;-71
2023/08/14 10:39:51;;;;;;;3.78;2.72;;;;;;;32.35;53.93;100377.25;4991418;28;20219;-71
2023/08/14 10:42:17;;;;;;;5.95;2.90;;;;;;;32.35;54.41;100390.09;4997573;28;20211;-71
2023/08/14 10:44:44;;;;;;;4.90;3.15;;;;;;;32.37;54.87;100399.06;5010507;28;20663;-71
2023/08/14 10:47:12;;;;;;;7.05;3.28;;;;;;;32.30;54.48;100401.41;4994851;28;20259;-71
2023/08/14 10:49:46;;;;;;;3.10;2.75;;;;;;;32.31;53.97;100411.38;4994537;28;20200;-71
2023/08/14 10:52:17;;;;;;;3.75;2.83;;;;;;;32.38;54.43;100409.03;4978842;28;20206;-71
2023/08/14 10:54:48;;;;;;;4.07;3.00;;;;;;;32.53;54.63;100410.63;5010554;28;20200;-71
2023/08/14 10:57:15;;;;;;;5.35;3.10;;;;;;;32.80;53.25;100402.09;4993909;28;20270;-71
2023/08/14 10:59:41;;;;;;;3.75;2.50;;;;;;;33.13;52.61;100405.91;4990807;28;20287;-71
2023/08/14 11:02:15;;;;;;;4.47;2.97;;;;;;;33.04;52.46;100402.03;4989249;28;20666;-70
2023/08/14 11:05:10;;;;;;;4.68;2.70;;;;;;;33.41;52.10;100410.97;5002259;28;20220;-71
2023/08/14 11:07:36;;;;;;;4.82;2.80;;;;;;;32.85;52.85;100410.88;4990833;28;20278;-71
2023/08/14 11:10:05;;;;;;;4.40;2.95;;;;;;;33.14;52.88;100421.38;4990618;28;20227;-71
2023/08/14 11:12:32;;;;;;;5.95;3.03;;;;;;;33.14;52.60;100411.28;4989735;28;20201;-71
2023/08/14 11:14:59;;;;;;;4.32;2.85;;;;;;;33.18;52.17;100425.63;5009526;28;20266;-71
2023/08/14 11:17:27;;;;;;;5.70;2.92;;;;;;;33.11;52.50;100421.63;5000227;28;20295;-71
2023/08/14 11:19:54;;;;;;;5.47;2.90;;;;;;;33.28;54.64;100424.78;4990694;28;20243;-71
2023/08/14 11:22:22;;;;;;;5.53;2.97;;;;;;;33.41;52.01;100432.94;4990432;28;20219;-71